Latest Weather Observations for Dennes Point

IDT60901

Issued at 10:25 am EST Thursday 2 October 2014 (issued every 10 minutes, with the page automatically refreshed every 10 minutes)

About weather observations | Map of Hobart area stations | Latest observations for Hobart area | Other Formats
Station Details ID: 094255 Name: DENNES POINT Lat: -43.06 Lon: 147.36 Height: 5.67 m
Data from the previous 72 hours. | See also: Recent months at Dennes Point
Date/Time
EST
Tmp

°C
App
Tmp
°C
Dew
Point
°C
Rel
Hum
%
Delta-T

°C
Wind Press
QNH
hPa
Press
MSL
hPa
Rain
since
9 am
mm
Dir
 
Spd
km/h
Gust
km/h
Spd
kts
Gust
kts
02/10:00am 15.2 9.2 7.0 58 4.0 WSW 28 41 15 22 1011.9 1011.9 0.0
02/09:30am 14.6 8.7 7.4 62 3.5 W 28 44 15 24 1011.7 1011.7 0.0
02/09:00am 15.3 9.7 7.3 59 4.0 W 26 43 14 23 1011.5 1011.5 0.0
02/08:30am 14.6 8.2 6.9 60 3.8 W 30 46 16 25 1011.3 1011.3 0.0
02/08:00am 13.7 6.8 6.3 61 3.5 W 32 43 17 23 1011.1 1011.1 0.0
02/07:30am 13.7 7.2 6.6 62 3.4 W 30 41 16 22 1011.0 1011.0 0.0
02/07:15am 13.6 6.8 6.7 63 3.3 W 32 50 17 27 1011.0 1011.0 0.0
02/07:00am 12.7 5.2 6.1 64 3.1 W 35 46 19 25 1010.8 1010.8 0.0
02/06:30am 12.4 5.4 6.2 66 2.9 WSW 32 41 17 22 1010.6 1010.6 0.0
02/06:00am 12.4 4.4 5.8 64 3.1 WSW 37 46 20 25 1010.4 1010.4 0.0
02/05:40am 12.8 5.2 5.9 63 3.2 W 35 57 19 31 1010.2 1010.2 0.0
02/05:30am 12.8 5.6 5.7 62 3.3 WSW 33 50 18 27 1010.1 1010.1 0.0
02/05:06am 12.7 4.7 5.6 62 3.3 W 37 57 20 31 1009.8 1009.8 0.0
02/05:00am 12.8 4.4 5.5 61 3.4 W 39 57 21 31 1009.8 1009.8 0.0
02/04:41am 12.8 5.5 5.5 61 3.4 WSW 33 56 18 30 1009.7 1009.7 0.0
02/04:30am 12.9 6.7 6.0 63 3.3 WSW 28 46 15 25 1009.5 1009.5 0.0
02/04:00am 12.8 5.8 5.9 63 3.3 WSW 32 44 17 24 1009.4 1009.4 0.0
02/03:31am 13.2 6.9 5.6 60 3.6 W 28 61 15 33 1009.3 1009.3 0.0
02/03:30am 13.1 7.2 5.8 61 3.4 W 26 37 14 20 1009.4 1009.4 0.0
02/03:00am 13.0 6.4 5.9 62 3.4 WSW 30 46 16 25 1009.4 1009.4 0.0
02/02:30am 12.9 5.8 5.6 61 3.4 W 32 43 17 23 1009.3 1009.3 0.0
02/02:00am 13.2 4.1 6.1 62 3.4 W 43 54 23 29 1009.5 1009.5 0.0
02/01:30am 13.0 4.7 6.1 63 3.3 W 39 54 21 29 1009.3 1009.3 0.0
02/01:00am 13.1 3.4 6.0 62 3.4 W 46 63 25 34 1009.4 1009.4 0.0
02/12:54am 13.2 3.9 5.9 61 3.4 W 44 63 24 34 1009.5 1009.5 0.0
02/12:30am 13.1 4.0 5.8 61 3.4 W 43 57 23 31 1009.9 1009.9 0.0
02/12:00am 13.1 3.1 6.2 63 3.3 W 48 61 26 33 1009.8 1009.8 0.0
 
Date/Time
EST
Tmp

°C
App
Tmp
°C
Dew
Point
°C
Rel
Hum
%
Delta-T

°C
Wind Press
QNH
hPa
Press
MSL
hPa
Rain
since
9 am
mm
Dir
 
Spd
km/h
Gust
km/h
Spd
kts
Gust
kts
01/11:30pm 13.1 5.9 6.0 62 3.4 W 33 54 18 29 1010.6 1010.6 0.0
01/11:00pm 13.1 6.4 5.8 61 3.4 W 30 37 16 20 1010.9 1010.9 0.0
01/10:30pm 12.7 7.0 6.5 66 3.0 W 26 39 14 21 1011.5 1011.5 0.0
01/10:00pm 12.9 5.0 6.3 64 3.1 W 37 46 20 25 1011.2 1011.2 0.0
01/09:44pm 12.8 5.7 6.4 65 3.0 W 33 52 18 28 1011.4 1011.4 0.0
01/09:30pm 12.7 9.0 6.3 65 3.0 NNW 15 26 8 14 1011.7 1011.7 0.0
01/09:00pm 12.3 10.0 5.9 65 3.0 NNW 7 32 4 17 1012.0 1012.0 0.0
01/08:30pm 11.9 8.8 5.5 65 3.0 NW 11 22 6 12 1012.3 1012.3 0.0
01/08:00pm 11.6 8.7 4.8 63 3.1 NNW 9 15 5 8 1012.8 1012.8 0.0
01/07:30pm 11.4 8.4 4.2 61 3.2 NNW 9 15 5 8 1013.2 1013.2 0.0
01/07:00pm 11.1 7.8 4.3 63 3.0 WNW 11 20 6 11 1013.7 1013.7 0.0
01/06:30pm 11.4 6.3 4.2 61 3.2 WNW 20 35 11 19 1013.9 1013.9 0.0
01/06:00pm 11.5 6.7 4.5 62 3.2 W 19 28 10 15 1014.4 1014.4 0.0
01/05:30pm 11.6 5.8 4.3 61 3.3 W 24 32 13 17 1014.3 1014.3 0.0
01/05:00pm 12.5 5.5 4.2 57 3.8 W 30 41 16 22 1014.2 1014.2 0.0
01/04:30pm 13.4 7.1 4.0 53 4.3 W 26 35 14 19 1014.2 1014.2 0.0
01/04:00pm 13.3 4.9 3.9 53 4.3 W 37 46 20 25 1013.7 1013.7 0.0
01/03:30pm 13.2 5.4 3.0 50 4.5 W 33 43 18 23 1013.6 1013.6 0.0
01/03:00pm 13.1 3.9 3.5 52 4.3 W 41 54 22 29 1013.5 1013.5 0.0
01/02:30pm 12.7 6.7 3.6 54 4.1 WSW 24 35 13 19 1013.7 1013.7 0.0
01/02:00pm 12.9 5.5 4.1 55 4.0 WSW 32 43 17 23 1013.8 1013.8 0.0
01/01:30pm 12.1 4.6 3.6 56 3.8 WSW 32 50 17 27 1013.8 1013.8 0.0
01/01:28pm 12.4 5.8 4.1 57 3.7 WSW 28 50 15 27 1013.7 1013.7 0.0
01/01:00pm 13.8 7.7 4.9 55 4.1 WSW 26 37 14 20 1013.4 1013.4 0.0
01/12:30pm 12.6 5.5 3.3 53 4.1 WSW 30 41 16 22 1013.9 1013.9 0.0
01/12:03pm 10.9 4.3 4.1 63 3.0 SW 28 48 15 26 1014.0 1014.0 0.0
01/12:00pm 11.4 6.0 4.4 62 3.2 WSW 22 39 12 21 1014.0 1014.0 0.0
01/11:31am 11.3 4.6 3.8 60 3.3 W 28 48 15 26 1013.9 1013.9 0.0
01/11:30am 12.0 5.8 4.2 59 3.5 W 26 48 14 26 1014.0 1014.0 0.0
01/11:00am 12.1 5.1 4.1 58 3.6 W 30 43 16 23 1013.8 1013.8 0.0
01/10:43am 12.6 5.0 4.1 56 3.8 W 33 52 18 28 1013.5 1013.5 0.0
01/10:30am 12.2 4.7 3.4 55 3.9 WSW 32 43 17 23 1013.4 1013.4 0.0
01/10:00am 11.6 5.2 3.1 56 3.7 WSW 26 39 14 21 1013.6 1013.6 0.0
01/09:30am 11.4 3.7 3.4 58 3.5 WSW 33 48 18 26 1013.5 1013.5 0.0
01/09:25am 11.2 4.1 3.5 59 3.4 W 30 48 16 26 1013.4 1013.4 0.0
01/09:00am 11.0 4.0 4.2 63 3.0 W 30 43 16 23 1013.3 1013.3 7.4
01/08:30am 10.8 4.7 2.9 58 3.4 WSW 24 33 13 18 1013.0 1013.0 7.4
01/08:00am 10.2 4.1 2.8 60 3.2 WSW 24 33 13 18 1012.6 1012.6 7.4
01/07:30am 9.1 2.2 2.4 63 2.8 WSW 28 39 15 21 1011.9 1011.9 7.4
01/07:00am 8.1 2.4 2.8 69 2.2 W 22 32 12 17 1011.6 1011.6 7.4
01/06:30am 7.3 2.5 2.4 71 2.0 W 17 24 9 13 1011.0 1011.0 7.4
01/06:00am 7.0 0.9 2.7 74 1.8 W 24 39 13 21 1010.4 1010.4 7.4
01/05:30am 6.8 -0.8 2.7 75 1.7 WSW 32 41 17 22 1009.6 1009.6 7.4
01/05:09am 7.4 -0.2 3.1 74 1.8 W 32 59 17 32 1009.0 1009.0 7.4
01/05:00am 7.2 0.3 2.5 72 2.0 WSW 28 35 15 19 1008.7 1008.7 7.4
01/04:30am 6.9 -2.9 2.0 71 2.0 WSW 43 72 23 39 1008.3 1008.3 7.4
01/04:13am 7.5 -0.3 2.8 72 2.0 WSW 33 57 18 31 1007.8 1007.8 7.4
01/04:00am 6.9 0.1 3.0 76 1.6 W 28 33 15 18 1007.6 1007.6 7.4
01/03:30am 6.7 0.3 3.3 79 1.4 W 26 33 14 18 1006.8 1006.8 7.4
01/03:00am 6.1 0.9 3.3 82 1.2 W 20 26 11 14 1006.7 1006.7 7.4
01/02:30am 6.4 -1.7 3.0 79 1.4 WSW 35 54 19 29 1006.7 1006.7 7.0
01/02:27am 6.8 -0.9 3.2 78 1.5 WSW 33 54 18 29 1006.9 1006.9 6.8
01/02:24am 6.8 -0.4 3.2 78 1.5 W 30 46 16 25 1006.7 1006.7 6.8
01/02:00am 6.3 1.1 3.3 81 1.3 WNW 20 26 11 14 1006.0 1006.0 6.6
01/01:34am 6.5 -4.0 3.5 81 1.3 W 48 69 26 37 1005.8 1005.8 6.4
01/01:30am 6.5 -4.8 3.5 81 1.3 W 52 69 28 37 1005.6 1005.6 6.2
01/01:22am 7.0 -3.6 2.9 75 1.7 W 48 61 26 33 1005.2 1005.2 6.2
01/01:00am 6.8 0.8 3.4 79 1.4 W 24 39 13 21 1004.8 1004.8 6.2
01/12:30am 5.2 2.5 2.7 84 1.0 S 6 7 3 4 1004.6 1004.6 6.2
01/12:00am 6.1 -1.0 3.3 82 1.2 WSW 30 39 16 21 1004.4 1004.4 6.2
 
Date/Time
EST
Tmp

°C
App
Tmp
°C
Dew
Point
°C
Rel
Hum
%
Delta-T

°C
Wind Press
QNH
hPa
Press
MSL
hPa
Rain
since
9 am
mm
Dir
 
Spd
km/h
Gust
km/h
Spd
kts
Gust
kts
30/11:42pm 7.4 0.2 2.9 73 1.9 SW 30 48 16 26 1004.0 1004.0 5.8
30/11:30pm 8.1 1.5 1.9 65 2.6 SW 26 32 14 17 1003.7 1003.7 5.8
30/11:00pm 7.7 -0.5 2.8 71 2.1 W 35 43 19 23 1002.5 1002.5 5.8
30/10:30pm 8.1 1.6 2.8 69 2.2 WSW 26 35 14 19 1002.3 1002.3 5.8
30/10:00pm 7.9 0.7 2.8 70 2.2 WSW 30 37 16 20 1001.6 1001.7 5.6
30/09:30pm 8.6 0.7 2.0 63 2.7 WSW 33 48 18 26 1001.1 1001.2 5.6
30/09:00pm 8.4 2.6 2.2 65 2.6 W 22 32 12 17 1000.7 1000.8 5.6
30/08:30pm 8.4 2.4 3.3 70 2.2 W 24 30 13 16 1000.2 1000.3 5.6
30/08:00pm 8.3 1.1 2.8 68 2.3 WSW 30 39 16 21 999.3 999.3 5.6
30/07:30pm 8.5 1.4 3.4 70 2.2 W 30 41 16 22 998.6 998.6 5.6
30/07:00pm 8.5 1.4 3.4 70 2.2 WSW 30 37 16 20 997.9 997.9 5.6
30/06:30pm 8.9 -0.1 4.3 73 2.0 W 41 59 22 32 997.2 997.2 5.6
30/06:00pm 9.7 2.0 5.5 75 1.9 W 35 48 19 26 996.8 996.8 5.6
30/05:36pm 10.5 4.2 5.9 73 2.1 W 28 48 15 26 995.9 995.9 5.6
30/05:30pm 10.6 5.2 6.2 74 2.0 WSW 24 37 13 20 995.7 995.7 5.6
30/05:00pm 11.3 7.7 6.8 74 2.2 SW 15 20 8 11 994.7 994.7 5.6
30/04:30pm 11.8 9.6 7.7 76 2.0 SSW 9 13 5 7 993.9 993.9 5.6
30/04:00pm 11.3 9.0 7.4 77 1.9 SSW 9 13 5 7 993.7 993.7 5.6
30/03:30pm 11.7 9.6 8.2 79 1.7 SW 9 13 5 7 993.1 993.1 5.6
30/03:00pm 10.3 8.1 7.9 85 1.2 SSW 9 13 5 7 993.6 993.6 5.6
30/02:30pm 10.5 8.4 8.3 86 1.1 SW 9 13 5 7 994.0 994.0 5.6
30/02:00pm 10.8 6.7 7.9 82 1.4 SW 19 28 10 15 993.8 993.8 5.4
30/01:30pm 11.3 7.1 8.3 82 1.5 SSW 20 32 11 17 994.0 994.0 1.2
30/01:00pm 14.8 11.5 8.1 64 3.4 SSW 15 20 8 11 992.5 992.5 0.0
30/12:30pm 15.0 12.1 8.0 63 3.5 SSW 13 20 7 11 992.9 992.9 0.0
30/12:00pm 16.4 13.6 8.4 59 4.1 W 13 20 7 11 993.4 993.4 0.0
30/11:30am 16.4 13.1 7.9 57 4.3 W 15 20 8 11 994.0 994.0 0.0
30/11:00am 17.0 11.7 6.8 51 5.1 W 24 43 13 23 994.2 994.2 0.0
30/10:30am 17.2 12.6 6.7 50 5.2 NNW 20 33 11 18 994.4 994.4 0.0
30/10:00am 16.8 11.8 6.3 50 5.2 N 22 35 12 19 994.7 994.7 0.0
30/09:30am 15.8 12.5 6.5 54 4.5 N 13 20 7 11 995.2 995.2 0.0
30/09:00am 15.4 11.0 6.4 55 4.4 N 19 32 10 17 995.6 995.6 0.0
30/08:30am 15.4 11.0 6.7 56 4.2 N 19 26 10 14 996.2 996.2 0.0
30/08:00am 15.5 11.0 6.2 54 4.5 N 19 26 10 14 996.6 996.6 0.0
30/07:31am 14.5 8.3 6.1 57 4.0 N 28 46 15 25 996.8 996.8 0.0
30/07:30am 14.4 7.8 6.0 57 4.0 N 30 46 16 25 996.7 996.7 0.0
30/07:00am 14.7 6.7 5.8 55 4.3 N 37 61 20 33 996.3 996.3 0.0
30/06:30am 13.9 6.1 6.5 61 3.6 N 37 56 20 30 996.6 996.6 0.0
30/06:28am 13.9 6.0 6.3 60 3.6 N 37 56 20 30 996.6 996.6 0.0
30/06:00am 14.0 6.7 7.1 63 3.4 N 35 50 19 27 996.9 996.9 0.0
30/05:46am 14.0 7.9 6.8 62 3.5 N 28 46 15 25 997.0 997.0 0.0
30/05:30am 14.0 9.5 7.1 63 3.4 N 20 28 11 15 997.5 997.5 0.0
30/05:00am 14.1 11.5 6.2 59 3.8 NNW 9 22 5 12 997.9 997.9 0.0
30/04:30am 14.6 10.0 5.4 54 4.3 NNW 19 35 10 19 998.2 998.2 0.0
30/04:00am 14.2 9.8 6.6 60 3.7 N 19 26 10 14 998.7 998.7 0.0
30/03:30am 14.4 9.8 6.3 58 3.9 N 20 32 11 17 998.8 998.8 0.0
30/03:00am 14.6 10.3 5.1 53 4.5 N 17 26 9 14 999.2 999.2 0.0
30/02:30am 15.0 9.6 4.4 49 4.9 N 22 33 12 18 999.7 999.7 0.0
30/02:00am 14.8 10.1 5.1 52 4.6 NNW 19 26 10 14 1000.0 1000.0 0.0
30/01:30am 14.4 11.3 5.7 56 4.1 N 11 17 6 9 1000.3 1000.4 0.0
30/01:00am 14.3 9.8 6.2 58 3.9 N 19 22 10 12 1000.7 1000.8 0.0
30/12:30am 13.8 10.7 7.1 64 3.3 NNE 13 17 7 9 1001.1 1001.2 0.0
30/12:00am 14.3 11.4 4.6 52 4.5 NNW 9 24 5 13 1001.5 1001.6 0.0
 
Date/Time
EST
Tmp

°C
App
Tmp
°C
Dew
Point
°C
Rel
Hum
%
Delta-T

°C
Wind Press
QNH
hPa
Press
MSL
hPa
Rain
since
9 am
mm
Dir
 
Spd
km/h
Gust
km/h
Spd
kts
Gust
kts
29/11:30pm 13.2 11.0 6.1 62 3.4 NE 7 11 4 6 1001.7 1001.8 0.0
29/11:00pm 13.2 11.3 7.4 68 2.8 NNE 7 13 4 7 1001.9 1002.0 0.0
29/10:30pm 13.7 10.5 6.8 63 3.3 NNE 13 19 7 10 1002.1 1002.1 0.0
29/10:00pm 13.6 9.3 6.9 64 3.3 N 19 22 10 12 1002.5 1002.5 0.0
29/09:30pm 13.8 9.3 6.2 60 3.6 N 19 24 10 13 1002.6 1002.6 0.0
29/09:00pm 14.0 9.0 3.8 50 4.7 N 19 28 10 15 1002.6 1002.6 0.0
29/08:30pm 13.8 11.3 4.7 54 4.2 N 7 13 4 7 1002.8 1002.8 0.0
29/08:00pm 13.9 11.1 3.4 49 4.7 NW 7 17 4 9 1002.9 1002.9 0.0
29/07:30pm 14.2 11.9 5.6 56 4.1 NNW 7 13 4 7 1002.6 1002.6 0.0
29/07:00pm 15.1 12.1 3.9 47 5.2 WNW 9 13 5 7 1002.8 1002.8 0.0
29/06:30pm 15.6 11.0 3.7 45 5.5 WNW 17 24 9 13 1002.5 1002.5 0.0
29/06:00pm 15.9 11.7 5.5 50 5.0 NNW 17 22 9 12 1002.3 1002.3 0.0
29/05:30pm 16.4 12.1 5.1 47 5.4 NNW 17 24 9 13 1002.1 1002.1 0.0
29/05:00pm 16.2 11.4 5.5 49 5.2 NNW 20 26 11 14 1001.7 1001.8 0.0
29/04:30pm 16.5 11.2 5.2 47 5.4 NNW 22 32 12 17 1001.5 1001.6 0.0
29/04:00pm 16.6 11.8 4.6 45 5.7 N 19 28 10 15 1001.4 1001.5 0.0
29/03:30pm 17.7 13.5 3.9 40 6.5 NNW 15 20 8 11 1001.5 1001.6 0.0
29/03:00pm 18.2 15.4 5.1 42 6.4 WNW 9 15 5 8 1002.1 1002.1 0.0
29/02:30pm 18.0 12.6 1.1 32 7.5 WNW 19 33 10 18 1002.4 1002.4 0.0
29/02:00pm 18.2 11.2 2.1 34 7.3 W 28 43 15 23 1002.5 1002.5 0.0
29/01:30pm 18.1 11.2 2.8 36 7.0 W 28 46 15 25 1002.8 1002.8 0.0
29/01:00pm 17.8 13.4 2.9 37 6.9 WNW 15 28 8 15 1003.0 1003.0 0.0
29/12:30pm 16.4 11.3 0.9 35 6.8 NW 17 30 9 16 1003.5 1003.5 0.0
29/12:00pm 16.1 7.8 2.2 39 6.2 W 35 52 19 28 1003.7 1003.7 0.0
29/11:30am 16.1 8.6 4.2 45 5.5 W 33 48 18 26 1003.3 1003.3 0.0
29/11:00am 16.2 10.2 3.3 42 5.9 W 24 33 13 18 1003.1 1003.1 0.0
29/10:30am 15.2 6.9 2.4 42 5.7 W 35 48 19 26 1003.2 1003.2 0.0

Latest Capital City Observations: Canberra | Sydney | Melbourne | Brisbane | Adelaide | Perth | Hobart | Darwin

Other Formats:

Comma delimited format used in spreadsheet applications
http://www.bom.gov.au/fwo/IDT60901/IDT60901.94988.axf

JavaScript Object Notation format (JSON) in row-major order
http://www.bom.gov.au/fwo/IDT60901/IDT60901.94988.json